sensor_id;sensor_type;location;lat;lon;timestamp;P1;durP1;ratioP1;P2;durP2;ratioP2
49584;SDS011;35491;49.142;9.210;2024-02-16T00:01:06;9.52;;;4.43;;
49584;SDS011;35491;49.142;9.210;2024-02-16T00:03:06;9.43;;;5.03;;
49584;SDS011;35491;49.142;9.210;2024-02-16T00:05:07;8.48;;;4.65;;
49584;SDS011;35491;49.142;9.210;2024-02-16T00:07:07;7.13;;;4.32;;
49584;SDS011;35491;49.142;9.210;2024-02-16T00:09:08;8.75;;;4.90;;
49584;SDS011;35491;49.142;9.210;2024-02-16T00:11:10;8.75;;;4.25;;
49584;SDS011;35491;49.142;9.210;2024-02-16T00:13:10;7.97;;;4.30;;
49584;SDS011;35491;49.142;9.210;2024-02-16T00:15:11;6.60;;;3.88;;
49584;SDS011;35491;49.142;9.210;2024-02-16T00:17:12;8.55;;;5.50;;
49584;SDS011;35491;49.142;9.210;2024-02-16T00:19:13;11.68;;;6.25;;
49584;SDS011;35491;49.142;9.210;2024-02-16T00:21:13;9.77;;;5.47;;
49584;SDS011;35491;49.142;9.210;2024-02-16T00:23:14;12.73;;;5.70;;
49584;SDS011;35491;49.142;9.210;2024-02-16T00:25:14;10.57;;;5.85;;
49584;SDS011;35491;49.142;9.210;2024-02-16T00:27:15;9.48;;;5.10;;
49584;SDS011;35491;49.142;9.210;2024-02-16T00:29:16;8.25;;;4.85;;
49584;SDS011;35491;49.142;9.210;2024-02-16T00:31:16;12.15;;;4.75;;
49584;SDS011;35491;49.142;9.210;2024-02-16T00:33:17;7.63;;;4.15;;
49584;SDS011;35491;49.142;9.210;2024-02-16T00:35:18;8.80;;;5.00;;
49584;SDS011;35491;49.142;9.210;2024-02-16T00:37:19;10.55;;;5.25;;
49584;SDS011;35491;49.142;9.210;2024-02-16T00:39:19;13.90;;;6.50;;
49584;SDS011;35491;49.142;9.210;2024-02-16T00:41:22;9.05;;;5.35;;
49584;SDS011;35491;49.142;9.210;2024-02-16T00:43:23;9.82;;;5.25;;
49584;SDS011;35491;49.142;9.210;2024-02-16T00:45:23;7.78;;;4.70;;
49584;SDS011;35491;49.142;9.210;2024-02-16T00:47:24;9.18;;;4.90;;
49584;SDS011;35491;49.142;9.210;2024-02-16T00:49:25;7.15;;;4.30;;
49584;SDS011;35491;49.142;9.210;2024-02-16T00:51:26;6.30;;;4.00;;
49584;SDS011;35491;49.142;9.210;2024-02-16T00:53:26;8.20;;;4.72;;
49584;SDS011;35491;49.142;9.210;2024-02-16T00:55:27;10.45;;;5.03;;
49584;SDS011;35491;49.142;9.210;2024-02-16T00:57:27;10.73;;;5.53;;
49584;SDS011;35491;49.142;9.210;2024-02-16T00:59:28;11.05;;;5.10;;
49584;SDS011;35491;49.142;9.210;2024-02-16T01:01:29;10.23;;;5.50;;
49584;SDS011;35491;49.142;9.210;2024-02-16T01:03:30;12.15;;;5.47;;
49584;SDS011;35491;49.142;9.210;2024-02-16T01:05:30;9.10;;;5.80;;
49584;SDS011;35491;49.142;9.210;2024-02-16T01:07:31;10.00;;;4.70;;
49584;SDS011;35491;49.142;9.210;2024-02-16T01:09:32;9.32;;;4.88;;
49584;SDS011;35491;49.142;9.210;2024-02-16T01:11:33;7.20;;;4.47;;
49584;SDS011;35491;49.142;9.210;2024-02-16T01:13:34;9.77;;;5.00;;
49584;SDS011;35491;49.142;9.210;2024-02-16T01:15:34;10.98;;;5.45;;
49584;SDS011;35491;49.142;9.210;2024-02-16T01:17:37;11.95;;;5.05;;
49584;SDS011;35491;49.142;9.210;2024-02-16T01:19:37;11.27;;;4.82;;
49584;SDS011;35491;49.142;9.210;2024-02-16T01:21:38;9.18;;;4.63;;
49584;SDS011;35491;49.142;9.210;2024-02-16T01:23:40;8.10;;;4.50;;
49584;SDS011;35491;49.142;9.210;2024-02-16T01:25:40;7.28;;;3.97;;
49584;SDS011;35491;49.142;9.210;2024-02-16T01:27:41;8.20;;;4.18;;
49584;SDS011;35491;49.142;9.210;2024-02-16T01:29:41;7.10;;;3.95;;
49584;SDS011;35491;49.142;9.210;2024-02-16T01:31:42;9.77;;;4.32;;
49584;SDS011;35491;49.142;9.210;2024-02-16T01:33:43;8.55;;;4.13;;
49584;SDS011;35491;49.142;9.210;2024-02-16T01:35:43;9.00;;;4.63;;
49584;SDS011;35491;49.142;9.210;2024-02-16T01:37:44;7.45;;;3.85;;
49584;SDS011;35491;49.142;9.210;2024-02-16T01:39:44;8.13;;;4.72;;
49584;SDS011;35491;49.142;9.210;2024-02-16T01:41:45;9.73;;;4.65;;
49584;SDS011;35491;49.142;9.210;2024-02-16T01:43:46;6.72;;;3.92;;
49584;SDS011;35491;49.142;9.210;2024-02-16T01:45:47;8.45;;;4.32;;
49584;SDS011;35491;49.142;9.210;2024-02-16T01:47:49;11.40;;;5.00;;
49584;SDS011;35491;49.142;9.210;2024-02-16T01:49:51;7.57;;;4.13;;
49584;SDS011;35491;49.142;9.210;2024-02-16T01:51:52;7.03;;;4.22;;
49584;SDS011;35491;49.142;9.210;2024-02-16T01:53:52;8.30;;;4.63;;
49584;SDS011;35491;49.142;9.210;2024-02-16T01:55:55;8.13;;;4.30;;
49584;SDS011;35491;49.142;9.210;2024-02-16T01:57:56;9.82;;;4.80;;
49584;SDS011;35491;49.142;9.210;2024-02-16T01:59:58;7.75;;;4.55;;
49584;SDS011;35491;49.142;9.210;2024-02-16T02:01:59;8.30;;;4.40;;
49584;SDS011;35491;49.142;9.210;2024-02-16T02:04:00;9.40;;;4.43;;
49584;SDS011;35491;49.142;9.210;2024-02-16T02:08:10;10.13;;;4.20;;
49584;SDS011;35491;49.142;9.210;2024-02-16T02:10:11;7.25;;;4.18;;
49584;SDS011;35491;49.142;9.210;2024-02-16T02:12:14;7.13;;;4.18;;
49584;SDS011;35491;49.142;9.210;2024-02-16T02:14:15;8.88;;;4.30;;
49584;SDS011;35491;49.142;9.210;2024-02-16T02:16:15;8.23;;;3.95;;
49584;SDS011;35491;49.142;9.210;2024-02-16T02:18:18;7.85;;;3.70;;
49584;SDS011;35491;49.142;9.210;2024-02-16T02:20:19;9.27;;;4.65;;
49584;SDS011;35491;49.142;9.210;2024-02-16T02:22:19;10.13;;;5.35;;
49584;SDS011;35491;49.142;9.210;2024-02-16T02:24:20;9.75;;;4.78;;
49584;SDS011;35491;49.142;9.210;2024-02-16T02:26:21;7.25;;;4.28;;
49584;SDS011;35491;49.142;9.210;2024-02-16T02:28:21;12.05;;;5.95;;
49584;SDS011;35491;49.142;9.210;2024-02-16T02:30:24;12.20;;;5.57;;
49584;SDS011;35491;49.142;9.210;2024-02-16T02:32:24;8.32;;;4.22;;
49584;SDS011;35491;49.142;9.210;2024-02-16T02:34:24;7.18;;;4.15;;
49584;SDS011;35491;49.142;9.210;2024-02-16T02:38:26;9.67;;;4.17;;
49584;SDS011;35491;49.142;9.210;2024-02-16T02:40:27;9.25;;;4.50;;
49584;SDS011;35491;49.142;9.210;2024-02-16T02:42:27;7.93;;;4.97;;
49584;SDS011;35491;49.142;9.210;2024-02-16T02:44:28;6.95;;;3.67;;
49584;SDS011;35491;49.142;9.210;2024-02-16T02:46:31;7.35;;;4.45;;
49584;SDS011;35491;49.142;9.210;2024-02-16T02:48:31;6.95;;;3.75;;
49584;SDS011;35491;49.142;9.210;2024-02-16T02:50:32;6.45;;;3.70;;
49584;SDS011;35491;49.142;9.210;2024-02-16T02:52:32;8.07;;;4.63;;
49584;SDS011;35491;49.142;9.210;2024-02-16T02:54:33;6.93;;;4.03;;
49584;SDS011;35491;49.142;9.210;2024-02-16T02:56:34;8.88;;;4.55;;
49584;SDS011;35491;49.142;9.210;2024-02-16T02:58:34;9.45;;;3.90;;
49584;SDS011;35491;49.142;9.210;2024-02-16T03:00:35;8.70;;;4.95;;
49584;SDS011;35491;49.142;9.210;2024-02-16T03:02:35;14.57;;;5.45;;
49584;SDS011;35491;49.142;9.210;2024-02-16T03:04:38;8.95;;;4.65;;
49584;SDS011;35491;49.142;9.210;2024-02-16T03:06:39;6.97;;;4.40;;
49584;SDS011;35491;49.142;9.210;2024-02-16T03:08:39;6.88;;;4.28;;
49584;SDS011;35491;49.142;9.210;2024-02-16T03:10:40;7.57;;;4.55;;
49584;SDS011;35491;49.142;9.210;2024-02-16T03:12:40;6.80;;;3.92;;
49584;SDS011;35491;49.142;9.210;2024-02-16T03:16:42;9.17;;;4.57;;
49584;SDS011;35491;49.142;9.210;2024-02-16T03:18:42;8.77;;;4.65;;
49584;SDS011;35491;49.142;9.210;2024-02-16T03:20:43;7.20;;;4.30;;
49584;SDS011;35491;49.142;9.210;2024-02-16T03:22:45;8.52;;;4.18;;
49584;SDS011;35491;49.142;9.210;2024-02-16T03:24:46;13.30;;;5.72;;
49584;SDS011;35491;49.142;9.210;2024-02-16T03:26:47;11.48;;;5.43;;
49584;SDS011;35491;49.142;9.210;2024-02-16T03:28:48;11.77;;;5.07;;
49584;SDS011;35491;49.142;9.210;2024-02-16T03:30:49;8.55;;;4.55;;
49584;SDS011;35491;49.142;9.210;2024-02-16T03:32:50;8.20;;;4.38;;
49584;SDS011;35491;49.142;9.210;2024-02-16T03:34:52;8.45;;;4.00;;
49584;SDS011;35491;49.142;9.210;2024-02-16T03:36:52;9.18;;;3.80;;
49584;SDS011;35491;49.142;9.210;2024-02-16T03:38:52;6.63;;;3.65;;
49584;SDS011;35491;49.142;9.210;2024-02-16T03:40:53;8.50;;;3.80;;
49584;SDS011;35491;49.142;9.210;2024-02-16T03:42:53;8.20;;;3.90;;
49584;SDS011;35491;49.142;9.210;2024-02-16T03:44:54;8.20;;;4.22;;
49584;SDS011;35491;49.142;9.210;2024-02-16T03:46:54;9.52;;;4.63;;
49584;SDS011;35491;49.142;9.210;2024-02-16T03:48:55;8.40;;;3.95;;
49584;SDS011;35491;49.142;9.210;2024-02-16T03:50:55;7.65;;;4.38;;
49584;SDS011;35491;49.142;9.210;2024-02-16T03:52:55;7.88;;;4.68;;
49584;SDS011;35491;49.142;9.210;2024-02-16T03:54:56;8.52;;;3.97;;
49584;SDS011;35491;49.142;9.210;2024-02-16T03:56:56;8.67;;;4.00;;
49584;SDS011;35491;49.142;9.210;2024-02-16T03:58:58;7.53;;;4.30;;
49584;SDS011;35491;49.142;9.210;2024-02-16T04:00:58;8.20;;;4.82;;
49584;SDS011;35491;49.142;9.210;2024-02-16T04:02:59;9.27;;;5.28;;
49584;SDS011;35491;49.142;9.210;2024-02-16T04:04:59;8.38;;;4.60;;
49584;SDS011;35491;49.142;9.210;2024-02-16T04:06:59;7.65;;;4.45;;
49584;SDS011;35491;49.142;9.210;2024-02-16T04:09:00;7.10;;;3.90;;
49584;SDS011;35491;49.142;9.210;2024-02-16T04:11:00;7.40;;;3.78;;
49584;SDS011;35491;49.142;9.210;2024-02-16T04:13:01;7.95;;;4.13;;
49584;SDS011;35491;49.142;9.210;2024-02-16T04:15:02;6.43;;;3.33;;
49584;SDS011;35491;49.142;9.210;2024-02-16T04:17:04;9.32;;;4.07;;
49584;SDS011;35491;49.142;9.210;2024-02-16T04:19:04;9.98;;;4.70;;
49584;SDS011;35491;49.142;9.210;2024-02-16T04:21:04;7.95;;;4.60;;
49584;SDS011;35491;49.142;9.210;2024-02-16T04:23:05;9.30;;;4.80;;
49584;SDS011;35491;49.142;9.210;2024-02-16T04:25:05;8.95;;;3.83;;
49584;SDS011;35491;49.142;9.210;2024-02-16T04:27:06;8.85;;;4.10;;
49584;SDS011;35491;49.142;9.210;2024-02-16T04:29:07;8.80;;;5.05;;
49584;SDS011;35491;49.142;9.210;2024-02-16T04:31:07;9.40;;;4.40;;
49584;SDS011;35491;49.142;9.210;2024-02-16T04:33:07;8.68;;;4.80;;
49584;SDS011;35491;49.142;9.210;2024-02-16T04:35:08;6.75;;;3.55;;
49584;SDS011;35491;49.142;9.210;2024-02-16T04:37:12;6.97;;;4.30;;
49584;SDS011;35491;49.142;9.210;2024-02-16T04:39:13;7.70;;;4.13;;
49584;SDS011;35491;49.142;9.210;2024-02-16T04:41:15;8.15;;;3.78;;
49584;SDS011;35491;49.142;9.210;2024-02-16T04:43:15;7.45;;;4.25;;
49584;SDS011;35491;49.142;9.210;2024-02-16T04:45:16;10.07;;;4.63;;
49584;SDS011;35491;49.142;9.210;2024-02-16T04:47:17;8.65;;;4.32;;
49584;SDS011;35491;49.142;9.210;2024-02-16T04:49:17;6.72;;;3.85;;
49584;SDS011;35491;49.142;9.210;2024-02-16T04:51:18;8.93;;;4.68;;
49584;SDS011;35491;49.142;9.210;2024-02-16T04:53:18;8.32;;;4.60;;
49584;SDS011;35491;49.142;9.210;2024-02-16T04:55:19;8.95;;;4.53;;
49584;SDS011;35491;49.142;9.210;2024-02-16T04:57:19;8.10;;;5.13;;
49584;SDS011;35491;49.142;9.210;2024-02-16T05:01:21;11.20;;;4.83;;
49584;SDS011;35491;49.142;9.210;2024-02-16T05:03:22;9.40;;;5.03;;
49584;SDS011;35491;49.142;9.210;2024-02-16T05:05:22;8.07;;;4.50;;
49584;SDS011;35491;49.142;9.210;2024-02-16T05:07:24;8.32;;;3.88;;
49584;SDS011;35491;49.142;9.210;2024-02-16T05:09:25;9.57;;;3.60;;
49584;SDS011;35491;49.142;9.210;2024-02-16T05:11:26;7.57;;;3.42;;
49584;SDS011;35491;49.142;9.210;2024-02-16T05:13:29;10.48;;;3.60;;
49584;SDS011;35491;49.142;9.210;2024-02-16T05:15:30;6.65;;;3.20;;
49584;SDS011;35491;49.142;9.210;2024-02-16T05:17:31;6.15;;;3.40;;
49584;SDS011;35491;49.142;9.210;2024-02-16T05:19:32;7.53;;;4.22;;
49584;SDS011;35491;49.142;9.210;2024-02-16T05:21:34;6.53;;;3.72;;
49584;SDS011;35491;49.142;9.210;2024-02-16T05:23:35;6.65;;;4.40;;
49584;SDS011;35491;49.142;9.210;2024-02-16T05:25:35;6.57;;;4.07;;
49584;SDS011;35491;49.142;9.210;2024-02-16T05:27:36;8.45;;;3.88;;
49584;SDS011;35491;49.142;9.210;2024-02-16T05:29:37;9.50;;;4.05;;
49584;SDS011;35491;49.142;9.210;2024-02-16T05:31:38;10.88;;;4.05;;
49584;SDS011;35491;49.142;9.210;2024-02-16T05:33:39;5.90;;;3.42;;
49584;SDS011;35491;49.142;9.210;2024-02-16T05:35:39;8.15;;;4.15;;
49584;SDS011;35491;49.142;9.210;2024-02-16T05:39:44;12.45;;;3.85;;
49584;SDS011;35491;49.142;9.210;2024-02-16T05:41:54;8.15;;;4.70;;
49584;SDS011;35491;49.142;9.210;2024-02-16T05:43:54;7.90;;;3.85;;
49584;SDS011;35491;49.142;9.210;2024-02-16T05:45:55;6.70;;;3.67;;
49584;SDS011;35491;49.142;9.210;2024-02-16T05:47:55;9.07;;;3.53;;
49584;SDS011;35491;49.142;9.210;2024-02-16T05:49:56;5.53;;;3.40;;
49584;SDS011;35491;49.142;9.210;2024-02-16T05:51:58;6.72;;;3.00;;
49584;SDS011;35491;49.142;9.210;2024-02-16T05:54:17;6.65;;;3.28;;
49584;SDS011;35491;49.142;9.210;2024-02-16T05:56:17;8.30;;;3.88;;
49584;SDS011;35491;49.142;9.210;2024-02-16T05:58:18;5.03;;;3.08;;
49584;SDS011;35491;49.142;9.210;2024-02-16T06:00:18;6.15;;;3.85;;
49584;SDS011;35491;49.142;9.210;2024-02-16T06:02:21;5.85;;;3.00;;
49584;SDS011;35491;49.142;9.210;2024-02-16T06:04:25;9.85;;;3.45;;
49584;SDS011;35491;49.142;9.210;2024-02-16T06:06:26;7.38;;;3.42;;
49584;SDS011;35491;49.142;9.210;2024-02-16T06:08:26;9.15;;;4.10;;
49584;SDS011;35491;49.142;9.210;2024-02-16T06:10:27;8.88;;;3.95;;
49584;SDS011;35491;49.142;9.210;2024-02-16T06:12:27;11.02;;;3.50;;
49584;SDS011;35491;49.142;9.210;2024-02-16T06:14:28;10.18;;;4.50;;
49584;SDS011;35491;49.142;9.210;2024-02-16T06:16:28;7.70;;;3.58;;
49584;SDS011;35491;49.142;9.210;2024-02-16T06:18:28;8.40;;;3.90;;
49584;SDS011;35491;49.142;9.210;2024-02-16T06:20:29;12.32;;;4.90;;
49584;SDS011;35491;49.142;9.210;2024-02-16T06:22:30;8.75;;;3.80;;
49584;SDS011;35491;49.142;9.210;2024-02-16T06:24:31;8.63;;;4.55;;
49584;SDS011;35491;49.142;9.210;2024-02-16T06:26:32;8.38;;;4.68;;
49584;SDS011;35491;49.142;9.210;2024-02-16T06:28:32;12.10;;;4.10;;
49584;SDS011;35491;49.142;9.210;2024-02-16T06:30:33;7.05;;;4.63;;
49584;SDS011;35491;49.142;9.210;2024-02-16T06:32:33;9.65;;;4.90;;
49584;SDS011;35491;49.142;9.210;2024-02-16T06:34:33;9.95;;;4.55;;
49584;SDS011;35491;49.142;9.210;2024-02-16T06:36:34;6.65;;;3.95;;
49584;SDS011;35491;49.142;9.210;2024-02-16T06:38:34;8.77;;;4.45;;
49584;SDS011;35491;49.142;9.210;2024-02-16T06:40:34;7.53;;;3.80;;
49584;SDS011;35491;49.142;9.210;2024-02-16T06:42:35;9.35;;;4.03;;
49584;SDS011;35491;49.142;9.210;2024-02-16T06:44:36;7.20;;;3.33;;
49584;SDS011;35491;49.142;9.210;2024-02-16T06:46:36;7.32;;;4.05;;
49584;SDS011;35491;49.142;9.210;2024-02-16T06:48:36;8.75;;;4.28;;
49584;SDS011;35491;49.142;9.210;2024-02-16T06:50:37;13.02;;;4.60;;
49584;SDS011;35491;49.142;9.210;2024-02-16T06:52:38;10.23;;;5.10;;
49584;SDS011;35491;49.142;9.210;2024-02-16T06:54:39;10.32;;;5.45;;
49584;SDS011;35491;49.142;9.210;2024-02-16T06:56:39;10.63;;;4.32;;
49584;SDS011;35491;49.142;9.210;2024-02-16T06:58:39;13.30;;;5.07;;
49584;SDS011;35491;49.142;9.210;2024-02-16T07:00:40;9.00;;;4.90;;
49584;SDS011;35491;49.142;9.210;2024-02-16T07:02:42;9.05;;;4.90;;
49584;SDS011;35491;49.142;9.210;2024-02-16T07:04:42;7.40;;;4.20;;
49584;SDS011;35491;49.142;9.210;2024-02-16T07:06:43;11.80;;;4.57;;
49584;SDS011;35491;49.142;9.210;2024-02-16T07:08:43;11.50;;;5.05;;
49584;SDS011;35491;49.142;9.210;2024-02-16T07:10:44;12.43;;;4.85;;
49584;SDS011;35491;49.142;9.210;2024-02-16T07:12:44;8.93;;;5.40;;
49584;SDS011;35491;49.142;9.210;2024-02-16T07:14:45;10.77;;;6.05;;
49584;SDS011;35491;49.142;9.210;2024-02-16T07:16:46;10.38;;;5.47;;
49584;SDS011;35491;49.142;9.210;2024-02-16T07:18:47;10.35;;;5.82;;
49584;SDS011;35491;49.142;9.210;2024-02-16T07:20:47;8.77;;;5.57;;
49584;SDS011;35491;49.142;9.210;2024-02-16T07:22:48;11.73;;;5.43;;
49584;SDS011;35491;49.142;9.210;2024-02-16T07:24:51;10.82;;;6.30;;
49584;SDS011;35491;49.142;9.210;2024-02-16T07:26:51;10.57;;;6.13;;
49584;SDS011;35491;49.142;9.210;2024-02-16T07:28:53;14.35;;;5.93;;
49584;SDS011;35491;49.142;9.210;2024-02-16T07:30:53;10.60;;;6.03;;
49584;SDS011;35491;49.142;9.210;2024-02-16T07:32:55;8.23;;;4.63;;
49584;SDS011;35491;49.142;9.210;2024-02-16T07:34:55;10.57;;;5.82;;
49584;SDS011;35491;49.142;9.210;2024-02-16T07:36:55;9.15;;;5.63;;
49584;SDS011;35491;49.142;9.210;2024-02-16T07:40:57;11.77;;;5.77;;
49584;SDS011;35491;49.142;9.210;2024-02-16T07:42:57;10.23;;;5.85;;
49584;SDS011;35491;49.142;9.210;2024-02-16T07:44:58;10.00;;;5.28;;
49584;SDS011;35491;49.142;9.210;2024-02-16T07:46:58;10.87;;;5.77;;
49584;SDS011;35491;49.142;9.210;2024-02-16T07:48:58;12.98;;;5.93;;
49584;SDS011;35491;49.142;9.210;2024-02-16T07:50:59;11.68;;;5.82;;
49584;SDS011;35491;49.142;9.210;2024-02-16T07:53:02;8.30;;;5.32;;
49584;SDS011;35491;49.142;9.210;2024-02-16T07:55:03;9.20;;;6.05;;
49584;SDS011;35491;49.142;9.210;2024-02-16T07:57:03;8.88;;;4.95;;
49584;SDS011;35491;49.142;9.210;2024-02-16T07:59:04;9.75;;;5.10;;
49584;SDS011;35491;49.142;9.210;2024-02-16T08:01:04;8.95;;;5.55;;
49584;SDS011;35491;49.142;9.210;2024-02-16T08:03:06;10.30;;;5.85;;
49584;SDS011;35491;49.142;9.210;2024-02-16T08:05:06;8.63;;;5.45;;
49584;SDS011;35491;49.142;9.210;2024-02-16T08:07:08;9.65;;;5.40;;
49584;SDS011;35491;49.142;9.210;2024-02-16T08:09:09;10.23;;;5.35;;
49584;SDS011;35491;49.142;9.210;2024-02-16T08:11:10;8.82;;;5.20;;
49584;SDS011;35491;49.142;9.210;2024-02-16T08:13:11;8.13;;;4.90;;
49584;SDS011;35491;49.142;9.210;2024-02-16T08:15:11;8.00;;;4.10;;
49584;SDS011;35491;49.142;9.210;2024-02-16T08:17:11;7.65;;;4.25;;
49584;SDS011;35491;49.142;9.210;2024-02-16T08:19:12;9.30;;;4.97;;
49584;SDS011;35491;49.142;9.210;2024-02-16T08:21:14;7.75;;;4.38;;
49584;SDS011;35491;49.142;9.210;2024-02-16T08:23:14;7.65;;;4.95;;
49584;SDS011;35491;49.142;9.210;2024-02-16T08:25:14;7.20;;;4.45;;
49584;SDS011;35491;49.142;9.210;2024-02-16T08:27:15;7.55;;;4.70;;
49584;SDS011;35491;49.142;9.210;2024-02-16T08:29:16;7.07;;;4.53;;
49584;SDS011;35491;49.142;9.210;2024-02-16T08:31:17;8.50;;;4.30;;
49584;SDS011;35491;49.142;9.210;2024-02-16T08:33:18;8.82;;;5.47;;
49584;SDS011;35491;49.142;9.210;2024-02-16T08:35:19;8.68;;;5.50;;
49584;SDS011;35491;49.142;9.210;2024-02-16T08:37:19;8.18;;;4.22;;
49584;SDS011;35491;49.142;9.210;2024-02-16T08:39:20;7.68;;;4.40;;
49584;SDS011;35491;49.142;9.210;2024-02-16T08:41:21;7.45;;;5.00;;
49584;SDS011;35491;49.142;9.210;2024-02-16T08:43:22;7.53;;;4.43;;
49584;SDS011;35491;49.142;9.210;2024-02-16T08:45:22;8.43;;;4.60;;
49584;SDS011;35491;49.142;9.210;2024-02-16T08:47:22;10.80;;;5.32;;
49584;SDS011;35491;49.142;9.210;2024-02-16T08:49:23;13.13;;;5.78;;
49584;SDS011;35491;49.142;9.210;2024-02-16T08:51:24;8.88;;;4.80;;
49584;SDS011;35491;49.142;9.210;2024-02-16T08:53:24;11.13;;;5.18;;
49584;SDS011;35491;49.142;9.210;2024-02-16T08:55:25;9.73;;;5.05;;
49584;SDS011;35491;49.142;9.210;2024-02-16T08:57:26;9.43;;;4.88;;
49584;SDS011;35491;49.142;9.210;2024-02-16T09:01:33;11.60;;;4.30;;
49584;SDS011;35491;49.142;9.210;2024-02-16T09:03:35;7.47;;;4.50;;
49584;SDS011;35491;49.142;9.210;2024-02-16T09:05:38;9.02;;;4.13;;
49584;SDS011;35491;49.142;9.210;2024-02-16T09:07:38;10.95;;;4.25;;
49584;SDS011;35491;49.142;9.210;2024-02-16T09:09:39;8.98;;;4.68;;
49584;SDS011;35491;49.142;9.210;2024-02-16T09:11:40;9.50;;;4.10;;
49584;SDS011;35491;49.142;9.210;2024-02-16T09:13:40;8.32;;;4.13;;
49584;SDS011;35491;49.142;9.210;2024-02-16T09:15:41;10.18;;;5.03;;
49584;SDS011;35491;49.142;9.210;2024-02-16T09:17:41;12.38;;;5.38;;
49584;SDS011;35491;49.142;9.210;2024-02-16T09:19:42;6.65;;;4.05;;
49584;SDS011;35491;49.142;9.210;2024-02-16T09:21:43;10.05;;;4.88;;
49584;SDS011;35491;49.142;9.210;2024-02-16T09:23:43;10.02;;;4.32;;
49584;SDS011;35491;49.142;9.210;2024-02-16T09:25:44;9.60;;;4.72;;
49584;SDS011;35491;49.142;9.210;2024-02-16T09:27:46;7.80;;;4.38;;
49584;SDS011;35491;49.142;9.210;2024-02-16T09:29:47;15.00;;;4.30;;
49584;SDS011;35491;49.142;9.210;2024-02-16T09:31:49;8.85;;;4.43;;
49584;SDS011;35491;49.142;9.210;2024-02-16T09:33:50;8.57;;;4.38;;
49584;SDS011;35491;49.142;9.210;2024-02-16T09:37:52;10.03;;;4.30;;
49584;SDS011;35491;49.142;9.210;2024-02-16T09:41:54;8.27;;;4.28;;
49584;SDS011;35491;49.142;9.210;2024-02-16T09:43:54;8.07;;;3.90;;
49584;SDS011;35491;49.142;9.210;2024-02-16T09:47:56;7.32;;;4.22;;
49584;SDS011;35491;49.142;9.210;2024-02-16T09:49:58;10.35;;;5.50;;
49584;SDS011;35491;49.142;9.210;2024-02-16T09:51:59;7.57;;;4.55;;
49584;SDS011;35491;49.142;9.210;2024-02-16T09:54:03;6.95;;;3.85;;
49584;SDS011;35491;49.142;9.210;2024-02-16T09:56:05;7.70;;;3.72;;
49584;SDS011;35491;49.142;9.210;2024-02-16T09:58:08;9.88;;;3.78;;
49584;SDS011;35491;49.142;9.210;2024-02-16T10:00:13;6.28;;;3.70;;
49584;SDS011;35491;49.142;9.210;2024-02-16T10:02:14;6.50;;;4.25;;
49584;SDS011;35491;49.142;9.210;2024-02-16T10:06:14;7.35;;;3.63;;
49584;SDS011;35491;49.142;9.210;2024-02-16T10:08:16;8.18;;;4.13;;
49584;SDS011;35491;49.142;9.210;2024-02-16T10:12:25;8.50;;;4.40;;
49584;SDS011;35491;49.142;9.210;2024-02-16T10:16:28;8.93;;;4.18;;
49584;SDS011;35491;49.142;9.210;2024-02-16T10:20:29;7.63;;;3.67;;
49584;SDS011;35491;49.142;9.210;2024-02-16T10:22:30;8.38;;;3.67;;
49584;SDS011;35491;49.142;9.210;2024-02-16T10:24:32;8.55;;;3.78;;
49584;SDS011;35491;49.142;9.210;2024-02-16T10:28:37;6.13;;;3.30;;
49584;SDS011;35491;49.142;9.210;2024-02-16T10:32:39;6.93;;;3.25;;
49584;SDS011;35491;49.142;9.210;2024-02-16T10:36:40;7.03;;;3.08;;
49584;SDS011;35491;49.142;9.210;2024-02-16T10:40:44;7.28;;;3.85;;
49584;SDS011;35491;49.142;9.210;2024-02-16T10:42:49;9.00;;;3.38;;
49584;SDS011;35491;49.142;9.210;2024-02-16T10:44:51;7.38;;;3.58;;
49584;SDS011;35491;49.142;9.210;2024-02-16T10:46:53;7.07;;;3.63;;
49584;SDS011;35491;49.142;9.210;2024-02-16T10:48:56;5.75;;;3.60;;
49584;SDS011;35491;49.142;9.210;2024-02-16T10:52:58;8.73;;;3.40;;
49584;SDS011;35491;49.142;9.210;2024-02-16T10:55:04;6.15;;;3.13;;
49584;SDS011;35491;49.142;9.210;2024-02-16T10:57:08;6.68;;;3.83;;
49584;SDS011;35491;49.142;9.210;2024-02-16T10:59:12;6.95;;;3.15;;
49584;SDS011;35491;49.142;9.210;2024-02-16T11:03:16;6.63;;;3.58;;
49584;SDS011;35491;49.142;9.210;2024-02-16T11:05:18;6.32;;;3.05;;
49584;SDS011;35491;49.142;9.210;2024-02-16T11:07:22;8.10;;;3.90;;
49584;SDS011;35491;49.142;9.210;2024-02-16T11:09:34;6.80;;;3.70;;
49584;SDS011;35491;49.142;9.210;2024-02-16T11:11:36;6.95;;;3.33;;
49584;SDS011;35491;49.142;9.210;2024-02-16T11:15:37;4.77;;;2.70;;
49584;SDS011;35491;49.142;9.210;2024-02-16T11:19:45;9.30;;;2.90;;
49584;SDS011;35491;49.142;9.210;2024-02-16T11:21:59;7.22;;;3.40;;
49584;SDS011;35491;49.142;9.210;2024-02-16T11:24:08;5.50;;;2.63;;
49584;SDS011;35491;49.142;9.210;2024-02-16T11:26:10;13.63;;;3.80;;
49584;SDS011;35491;49.142;9.210;2024-02-16T11:28:11;6.60;;;2.97;;
49584;SDS011;35491;49.142;9.210;2024-02-16T11:30:13;7.40;;;3.35;;
49584;SDS011;35491;49.142;9.210;2024-02-16T11:34:23;7.80;;;3.60;;
49584;SDS011;35491;49.142;9.210;2024-02-16T11:36:25;7.75;;;3.15;;
49584;SDS011;35491;49.142;9.210;2024-02-16T11:38:27;7.72;;;2.88;;
49584;SDS011;35491;49.142;9.210;2024-02-16T11:40:30;5.78;;;2.83;;
49584;SDS011;35491;49.142;9.210;2024-02-16T11:44:34;6.40;;;3.33;;
49584;SDS011;35491;49.142;9.210;2024-02-16T11:46:37;12.88;;;3.17;;
49584;SDS011;35491;49.142;9.210;2024-02-16T11:48:38;7.22;;;3.67;;
49584;SDS011;35491;49.142;9.210;2024-02-16T11:52:38;6.17;;;2.90;;
49584;SDS011;35491;49.142;9.210;2024-02-16T11:56:44;6.32;;;2.40;;
49584;SDS011;35491;49.142;9.210;2024-02-16T11:58:51;5.82;;;2.95;;
49584;SDS011;35491;49.142;9.210;2024-02-16T12:00:53;5.30;;;2.65;;
49584;SDS011;35491;49.142;9.210;2024-02-16T12:05:01;4.93;;;2.65;;
49584;SDS011;35491;49.142;9.210;2024-02-16T12:07:02;6.45;;;2.95;;
49584;SDS011;35491;49.142;9.210;2024-02-16T12:11:04;7.20;;;2.50;;
49584;SDS011;35491;49.142;9.210;2024-02-16T12:15:05;8.13;;;2.80;;
49584;SDS011;35491;49.142;9.210;2024-02-16T12:17:06;6.75;;;2.67;;
49584;SDS011;35491;49.142;9.210;2024-02-16T12:23:11;6.15;;;3.00;;
49584;SDS011;35491;49.142;9.210;2024-02-16T12:25:12;8.27;;;3.05;;
49584;SDS011;35491;49.142;9.210;2024-02-16T12:29:14;6.30;;;3.20;;
49584;SDS011;35491;49.142;9.210;2024-02-16T12:31:20;6.95;;;3.22;;
49584;SDS011;35491;49.142;9.210;2024-02-16T12:33:24;7.53;;;3.00;;
49584;SDS011;35491;49.142;9.210;2024-02-16T12:35:25;9.07;;;2.80;;
49584;SDS011;35491;49.142;9.210;2024-02-16T12:39:25;6.63;;;2.00;;
49584;SDS011;35491;49.142;9.210;2024-02-16T12:43:26;4.27;;;1.80;;
49584;SDS011;35491;49.142;9.210;2024-02-16T12:47:27;5.10;;;2.10;;
49584;SDS011;35491;49.142;9.210;2024-02-16T12:51:28;6.30;;;2.10;;
49584;SDS011;35491;49.142;9.210;2024-02-16T12:55:35;7.82;;;2.67;;
49584;SDS011;35491;49.142;9.210;2024-02-16T12:59:37;6.22;;;1.95;;
49584;SDS011;35491;49.142;9.210;2024-02-16T13:01:38;6.43;;;2.17;;
49584;SDS011;35491;49.142;9.210;2024-02-16T13:05:39;5.70;;;2.33;;
49584;SDS011;35491;49.142;9.210;2024-02-16T13:09:41;8.30;;;2.63;;
49584;SDS011;35491;49.142;9.210;2024-02-16T13:11:42;7.05;;;2.35;;
49584;SDS011;35491;49.142;9.210;2024-02-16T13:15:43;6.40;;;2.37;;
49584;SDS011;35491;49.142;9.210;2024-02-16T13:19:43;7.27;;;2.57;;
49584;SDS011;35491;49.142;9.210;2024-02-16T13:23:45;4.70;;;2.00;;
49584;SDS011;35491;49.142;9.210;2024-02-16T13:27:45;9.13;;;2.23;;
49584;SDS011;35491;49.142;9.210;2024-02-16T13:29:47;5.95;;;2.47;;
49584;SDS011;35491;49.142;9.210;2024-02-16T13:31:48;7.43;;;2.45;;
49584;SDS011;35491;49.142;9.210;2024-02-16T13:35:49;6.53;;;2.10;;
49584;SDS011;35491;49.142;9.210;2024-02-16T13:39:50;5.50;;;2.17;;
49584;SDS011;35491;49.142;9.210;2024-02-16T13:41:51;5.18;;;2.45;;